Time;durP1;ratioP1;P1;durP2;ratioP2;P2;SDS_P1;SDS_P2;PMS_P1;PMS_P2;Temp;Humidity;BMP_temperature;BMP_pressure;BME280_temperature;BME280_humidity;BME280_pressure;Samples;Min_cycle;Max_cycle;Signal;HPM_P1;HPM_P2
2021/10/10 00:01:23;;;;;;;59.13;39.97;;;;;;;10.65;68.16;102869.16;10387123;28;20044;-79
2021/10/10 00:06:24;;;;;;;58.92;39.65;;;;;;;10.63;67.91;102861.22;10399926;28;20038;-79
2021/10/10 00:11:24;;;;;;;64.10;43.60;;;;;;;10.51;68.72;102864.25;10391951;28;20141;-80
2021/10/10 00:16:24;;;;;;;65.88;43.30;;;;;;;9.95;68.73;102766.66;10382022;28;20073;-80
2021/10/10 00:21:25;;;;;;;66.13;42.20;;;;;;;10.46;68.83;102854.72;10381564;28;20185;-81
2021/10/10 00:26:25;;;;;;;61.08;39.58;;;;;;;10.27;68.70;102825.00;10379954;28;20045;-81
2021/10/10 00:31:26;;;;;;;62.05;42.15;;;;;;;10.27;68.70;102833.13;10400385;28;20375;-81
2021/10/10 00:36:26;;;;;;;67.43;40.67;;;;;;;10.38;68.68;102856.47;10379188;28;20499;-80
2021/10/10 00:41:26;;;;;;;62.95;38.53;;;;;;;10.33;68.11;102848.78;10381061;28;20042;-81
2021/10/10 00:46:27;;;;;;;54.03;37.90;;;;;;;10.29;68.44;102855.50;10386123;28;20041;-80
2021/10/10 00:51:27;;;;;;;67.47;40.85;;;;;;;10.25;68.89;102851.34;10386362;28;20081;-81
2021/10/10 00:56:28;;;;;;;64.40;42.08;;;;;;;9.74;68.54;102769.59;10379065;28;20445;-81
2021/10/10 01:01:28;;;;;;;58.53;39.85;;;;;;;10.09;68.13;102829.47;10377308;28;20057;-81
2021/10/10 01:06:28;;;;;;;61.42;41.17;;;;;;;10.12;68.56;102835.44;10375641;28;20038;-80
2021/10/10 01:11:29;;;;;;;58.55;39.28;;;;;;;10.11;68.33;102832.84;10376584;28;20045;-80
2021/10/10 01:16:29;;;;;;;58.08;39.80;;;;;;;10.04;68.09;102831.75;10376566;28;20073;-80
2021/10/10 01:21:30;;;;;;;70.18;39.83;;;;;;;10.04;68.63;102832.59;10376670;28;20038;-80
2021/10/10 01:26:30;;;;;;;52.25;39.40;;;;;;;9.47;68.22;102737.03;10376354;28;20041;-81
2021/10/10 01:31:31;;;;;;;59.95;40.88;;;;;;;10.00;68.38;102828.47;10391259;28;20117;-80
2021/10/10 01:36:34;;;;;;;65.03;42.17;;;;;;;9.97;68.93;102832.31;10374169;28;20364;-80
2021/10/10 01:41:34;;;;;;;58.38;39.30;;;;;;;9.07;68.13;102670.53;10375494;28;20128;-80
2021/10/10 01:46:35;;;;;;;61.08;38.58;;;;;;;9.92;68.02;102817.53;10392840;28;20042;-80
2021/10/10 01:51:35;;;;;;;57.63;38.00;;;;;;;8.96;69.13;102658.00;10377253;28;20062;-79
2021/10/10 01:56:36;;;;;;;65.55;40.65;;;;;;;9.88;68.43;102814.25;10391576;28;20034;-81
2021/10/10 02:01:36;;;;;;;58.08;39.35;;;;;;;9.73;68.77;102796.75;10390869;28;20030;-81
2021/10/10 02:06:37;;;;;;;52.67;38.88;;;;;;;9.83;68.61;102813.84;10375145;28;20048;-81
2021/10/10 02:11:37;;;;;;;59.40;38.63;;;;;;;9.78;68.81;102806.16;10390662;28;20037;-80
2021/10/10 02:16:37;;;;;;;58.63;38.20;;;;;;;9.69;68.67;102801.63;10377293;28;20406;-79
2021/10/10 02:21:38;;;;;;;55.65;36.90;;;;;;;9.74;68.68;102809.31;10379266;28;20045;-81
2021/10/10 02:26:39;;;;;;;57.70;37.92;;;;;;;9.49;68.74;102779.16;10385680;28;20437;-79
2021/10/10 02:31:42;;;;;;;57.50;35.65;;;;;;;9.48;68.73;102776.63;10397807;28;20038;-80
2021/10/10 02:36:43;;;;;;;61.13;37.95;;;;;;;9.12;68.57;102727.69;10379804;28;20034;-80
2021/10/10 02:41:43;;;;;;;64.00;39.20;;;;;;;9.65;68.81;102804.78;10374467;28;20129;-80
2021/10/10 02:46:44;;;;;;;59.00;38.67;;;;;;;9.55;68.89;102783.16;10372500;28;20042;-80
2021/10/10 02:51:44;;;;;;;55.42;37.42;;;;;;;9.57;68.89;102810.03;10373945;28;20136;-80
2021/10/10 02:56:44;;;;;;;58.88;38.97;;;;;;;9.62;68.98;102803.19;10388847;28;20042;-80
2021/10/10 03:01:45;;;;;;;65.45;39.53;;;;;;;9.60;68.47;102797.06;10373738;28;20042;-80
2021/10/10 03:06:45;;;;;;;54.10;37.47;;;;;;;9.54;68.28;102793.13;10371465;28;20034;-80
2021/10/10 03:11:45;;;;;;;64.28;35.78;;;;;;;9.39;68.30;102761.25;10378842;28;20409;-80
2021/10/10 03:16:46;;;;;;;60.22;35.92;;;;;;;9.52;68.28;102788.84;10381252;28;20117;-81
2021/10/10 03:21:46;;;;;;;63.58;38.17;;;;;;;9.45;68.24;102783.16;10379821;28;20581;-80
2021/10/10 03:26:47;;;;;;;54.17;37.67;;;;;;;9.46;68.23;102786.72;10382246;28;20037;-80
2021/10/10 03:31:47;;;;;;;56.72;37.50;;;;;;;9.29;68.19;102761.25;10381797;28;20433;-80
2021/10/10 03:36:49;;;;;;;58.70;40.33;;;;;;;8.91;69.03;102699.97;10380654;28;20042;-80
2021/10/10 03:41:50;;;;;;;60.90;37.58;;;;;;;8.87;68.56;102696.72;10381833;28;20053;-80
2021/10/10 03:46:50;;;;;;;56.97;36.47;;;;;;;9.41;69.09;102789.88;10381204;28;20045;-79
2021/10/10 03:51:50;;;;;;;69.22;39.05;;;;;;;9.42;68.88;102785.31;10380692;28;20053;-80
2021/10/10 03:56:52;;;;;;;65.95;40.15;;;;;;;9.30;68.35;102761.09;10379693;28;20056;-80
2021/10/10 04:01:52;;;;;;;62.75;39.38;;;;;;;8.97;68.71;102702.97;10395068;28;20060;-80
2021/10/10 04:06:53;;;;;;;51.17;36.80;;;;;;;8.92;69.18;102702.53;10376997;28;20038;-80
2021/10/10 04:11:53;;;;;;;58.40;39.58;;;;;;;9.36;68.64;102788.56;10394108;28;20409;-79
2021/10/10 04:16:53;;;;;;;57.70;37.47;;;;;;;9.42;69.23;102778.03;10380252;28;20116;-80
2021/10/10 04:21:54;;;;;;;53.58;37.55;;;;;;;9.46;68.76;102781.31;10380363;28;20045;-79
2021/10/10 04:26:54;;;;;;;56.35;37.25;;;;;;;9.52;69.48;102780.72;10380695;28;20041;-80
2021/10/10 04:31:55;;;;;;;51.60;38.85;;;;;;;9.57;68.87;102783.00;10379714;28;20049;-79
2021/10/10 04:36:55;;;;;;;57.20;41.88;;;;;;;9.38;69.12;102738.78;10378760;28;20061;-79
2021/10/10 04:41:55;;;;;;;61.90;41.17;;;;;;;9.49;68.76;102746.72;10378319;28;20053;-80
2021/10/10 04:46:56;;;;;;;67.35;42.17;;;;;;;9.54;69.00;102765.22;10379613;28;20037;-80
2021/10/10 04:51:56;;;;;;;71.47;44.97;;;;;;;9.64;69.59;102766.06;10378711;28;20137;-80
2021/10/10 04:56:57;;;;;;;70.03;47.10;;;;;;;9.68;69.86;102755.78;10378729;28;20045;-79
2021/10/10 05:01:57;;;;;;;65.00;43.25;;;;;;;9.65;70.52;102746.09;10378547;28;20041;-79
2021/10/10 05:06:57;;;;;;;67.18;43.95;;;;;;;9.88;69.89;102767.41;10377539;28;20045;-80
2021/10/10 05:11:58;;;;;;;69.95;46.83;;;;;;;9.95;70.02;102758.53;10376813;28;20042;-80
2021/10/10 05:16:58;;;;;;;60.53;43.75;;;;;;;9.71;70.64;102740.13;10377804;28;20033;-80
2021/10/10 05:21:59;;;;;;;76.57;51.70;;;;;;;9.71;72.13;102744.69;10392985;28;20084;-79
2021/10/10 05:27:00;;;;;;;82.40;53.03;;;;;;;9.59;71.60;102664.69;10376854;28;20045;-79
2021/10/10 05:32:01;;;;;;;80.20;48.97;;;;;;;10.05;71.78;102736.00;10392548;28;20073;-79
2021/10/10 05:37:01;;;;;;;61.53;39.65;;;;;;;10.06;71.57;102716.06;10374971;28;20052;-79
2021/10/10 05:42:02;;;;;;;49.40;36.53;;;;;;;9.96;71.35;102706.13;10376543;28;20117;-80
2021/10/10 05:47:02;;;;;;;54.17;36.58;;;;;;;10.00;71.09;102720.22;10375546;28;20042;-80
2021/10/10 05:52:04;;;;;;;51.85;35.80;;;;;;;9.88;70.79;102713.28;10375080;28;20084;-80
2021/10/10 05:57:16;;;;;;;58.35;38.30;;;;;;;9.61;71.24;102668.13;10375094;28;20041;-80
2021/10/10 06:02:16;;;;;;;45.85;34.53;;;;;;;10.02;70.76;102732.59;10374841;28;20410;-80
2021/10/10 06:07:16;;;;;;;53.78;37.38;;;;;;;9.95;70.27;102731.47;10373061;28;20045;-80
2021/10/10 06:12:17;;;;;;;52.03;35.08;;;;;;;9.69;70.25;102715.03;10374753;28;20394;-80
2021/10/10 06:17:18;;;;;;;63.00;38.08;;;;;;;9.94;70.45;102728.94;10374779;28;20053;-80
2021/10/10 06:22:18;;;;;;;55.78;38.22;;;;;;;9.93;71.08;102736.19;10374834;28;20026;-79
2021/10/10 06:27:19;;;;;;;45.75;34.05;;;;;;;10.21;70.92;102742.50;10375066;28;20477;-79
2021/10/10 06:32:19;;;;;;;57.33;37.15;;;;;;;10.19;70.58;102713.84;10376070;28;20042;-78
2021/10/10 06:37:19;;;;;;;34.80;30.50;;;;;;;10.43;70.47;102735.84;10380788;28;20445;-78
2021/10/10 06:42:21;;;;;;;33.00;28.23;;;;;;;10.59;71.35;102739.72;10376226;28;20037;-79
2021/10/10 06:47:21;;;;;;;45.53;33.53;;;;;;;10.72;70.80;102745.66;10381220;28;20508;-79
2021/10/10 06:52:22;;;;;;;45.75;30.67;;;;;;;11.00;71.13;102753.69;10382020;28;20069;-79
2021/10/10 06:57:22;;;;;;;43.40;35.00;;;;;;;11.61;71.43;102756.44;10383702;28;20037;-79
2021/10/10 07:02:22;;;;;;;60.65;37.65;;;;;;;11.98;70.63;102739.03;10383463;28;20069;-79
2021/10/10 07:07:23;;;;;;;56.70;37.90;;;;;;;12.49;70.51;102763.53;10382263;28;20512;-79
2021/10/10 07:12:24;;;;;;;60.20;40.83;;;;;;;12.84;70.26;102773.31;10397933;28;20129;-80
2021/10/10 07:17:27;;;;;;;54.42;40.15;;;;;;;12.90;70.00;102747.31;10380257;28;20030;-80
2021/10/10 07:22:45;;;;;;;58.95;42.25;;;;;;;12.90;70.71;102698.38;10381276;28;20041;-79
2021/10/10 07:27:47;;;;;;;62.97;44.70;;;;;;;13.87;70.18;102759.22;10379518;28;20042;-79
2021/10/10 07:32:47;;;;;;;69.32;46.78;;;;;;;14.41;69.62;102773.84;10379866;28;20037;-78
2021/10/10 07:37:48;;;;;;;68.47;46.53;;;;;;;14.41;69.35;102797.53;10379287;28;20046;-79
2021/10/10 07:42:48;;;;;;;60.95;44.70;;;;;;;14.35;69.71;102782.72;10379888;28;20491;-78
2021/10/10 07:47:51;;;;;;;75.13;48.58;;;;;;;14.41;70.16;102792.06;10380057;28;20038;-80
2021/10/10 07:52:52;;;;;;;76.75;46.85;;;;;;;14.00;70.09;102724.09;10379751;28;20050;-80
2021/10/10 07:57:52;;;;;;;63.03;43.85;;;;;;;14.38;69.80;102800.59;10377843;28;20120;-79
2021/10/10 08:02:54;;;;;;;67.00;47.78;;;;;;;14.23;70.11;102737.81;10380025;28;20037;-79
2021/10/10 08:07:55;;;;;;;65.97;45.60;;;;;;;14.13;70.08;102699.88;10361901;28;20026;-79
2021/10/10 08:12:55;;;;;;;72.60;49.55;;;;;;;14.21;70.36;102679.06;10378981;28;20044;-79
2021/10/10 08:17:55;;;;;;;73.18;45.67;;;;;;;15.18;70.55;102788.59;10380371;28;20061;-79
2021/10/10 08:22:57;;;;;;;77.45;50.33;;;;;;;15.48;70.43;102798.59;10325466;28;20049;-79
2021/10/10 08:27:58;;;;;;;71.22;49.42;;;;;;;15.55;70.35;102809.63;10377979;28;20108;-79
2021/10/10 08:32:58;;;;;;;73.40;48.00;;;;;;;15.54;69.93;102802.47;10378636;28;20112;-79
2021/10/10 08:37:58;;;;;;;63.97;46.85;;;;;;;15.40;69.65;102795.06;10378183;28;20478;-79
2021/10/10 08:43:00;;;;;;;75.53;45.67;;;;;;;15.21;69.70;102805.44;10379669;28;20057;-79
2021/10/10 08:48:01;;;;;;;72.95;44.45;;;;;;;15.41;70.19;102792.19;10378027;28;20038;-80
2021/10/10 08:53:01;;;;;;;69.13;49.65;;;;;;;16.58;70.00;102808.03;10378963;28;20550;-79
2021/10/10 08:58:03;;;;;;;93.30;57.97;;;;;;;17.93;69.47;102783.50;10379146;28;20030;-79
2021/10/10 09:03:11;;;;;;;102.35;59.30;;;;;;;18.62;69.45;102766.13;10377449;28;20034;-80
2021/10/10 09:08:12;;;;;;;80.45;56.17;;;;;;;18.53;67.11;102789.31;10376238;28;20034;-79
2021/10/10 09:13:16;;;;;;;78.07;51.67;;;;;;;18.09;66.98;102776.84;10377572;28;20053;-79
2021/10/10 09:18:16;;;;;;;58.45;41.60;;;;;;;17.70;67.41;102788.34;10377726;28;20352;-79
2021/10/10 09:23:16;;;;;;;63.13;44.55;;;;;;;17.63;67.27;102811.06;10379738;28;20034;-80
2021/10/10 09:28:21;;;;;;;66.82;44.22;;;;;;;18.39;68.38;102823.22;10379327;28;20040;-79
2021/10/10 09:33:51;;;;;;;85.55;49.50;;;;;;;19.76;68.22;102811.16;10376310;28;20061;-79
2021/10/10 09:49:38;;;;;;;65.30;43.08;;;;;;;20.63;66.37;102810.75;10377170;28;20041;-79
2021/10/10 09:54:51;;;;;;;73.72;42.97;;;;;;;20.95;65.79;102809.97;10371370;28;20049;-79
2021/10/10 09:59:53;;;;;;;67.38;45.20;;;;;;;20.95;65.57;102747.47;10375790;28;20042;-79
2021/10/10 10:04:54;;;;;;;55.72;42.00;;;;;;;21.97;63.73;102816.22;10373966;28;20053;-79
2021/10/10 10:09:55;;;;;;;54.17;39.70;;;;;;;22.10;62.63;102738.81;10375512;28;20046;-79
2021/10/10 10:14:56;;;;;;;51.08;35.38;;;;;;;23.04;61.45;102757.78;10372832;28;20132;-79
2021/10/10 10:19:58;;;;;;;46.55;34.75;;;;;;;23.84;60.83;102810.72;10356671;28;20427;-79
2021/10/10 10:24:58;;;;;;;42.35;31.40;;;;;;;22.97;61.08;102808.50;10389452;28;20126;-79
2021/10/10 10:29:59;;;;;;;36.67;27.17;;;;;;;22.55;59.74;102807.53;10372711;28;20120;-79
2021/10/10 10:35:13;;;;;;;32.35;27.08;;;;;;;23.12;63.04;102794.22;10373279;28;20038;-79
2021/10/10 10:40:16;;;;;;;34.72;25.45;;;;;;;23.97;59.19;102822.66;10373912;28;20462;-79
2021/10/10 10:45:33;;;;;;;36.28;23.65;;;;;;;23.86;61.43;102710.88;10374075;28;20486;-79
2021/10/10 10:50:37;;;;;;;;;;;;;;;24.02;64.73;102795.91;10373121;28;20160;-79
2021/10/10 10:55:38;;;;;;;36.40;22.70;;;;;;;23.26;56.94;102728.53;10373727;28;19922;-79
2021/10/10 11:00:43;;;;;;;32.03;21.58;;;;;;;23.28;58.02;102754.00;10373518;28;20042;-79
2021/10/10 11:05:45;;;;;;;28.67;19.65;;;;;;;23.31;58.27;102796.94;10371682;28;20037;-79
2021/10/10 11:11:04;;;;;;;44.70;24.35;;;;;;;23.59;63.65;102799.84;10373007;28;20387;-79
2021/10/10 11:16:08;;;;;;;33.67;22.23;;;;;;;25.06;58.15;102789.50;10373518;28;20474;-80
2021/10/10 11:21:08;;;;;;;16.85;14.38;;;;;;;24.49;55.87;102786.72;10373554;28;20048;-79
2021/10/10 11:26:10;;;;;;;18.52;13.77;;;;;;;24.36;55.49;102760.94;10388624;28;20046;-79
2021/10/10 11:31:24;;;;;;;18.23;12.55;;;;;;;23.69;61.55;102773.56;10375602;28;20092;-79
2021/10/10 11:36:49;;;;;;;15.27;11.95;;;;;;;23.58;57.45;102786.25;10379781;28;20083;-79
2021/10/10 11:41:57;;;;;;;17.73;11.48;;;;;;;23.87;58.10;102765.16;10380196;28;20034;-79
2021/10/10 11:46:59;;;;;;;16.00;11.63;;;;;;;24.14;53.92;102779.31;10380189;28;20449;-80
2021/10/10 11:52:31;;;;;;;15.00;11.73;;;;;;;23.47;59.53;102778.81;10395098;28;20112;-79
2021/10/10 11:57:31;;;;;;;13.73;11.60;;;;;;;23.02;57.36;102780.16;10392854;28;20076;-79
2021/10/10 12:02:35;;;;;;;15.25;11.70;;;;;;;22.75;58.36;102783.25;10378258;28;20128;-79
2021/10/10 12:07:36;;;;;;;14.98;13.30;;;;;;;22.78;58.53;102776.41;10377586;28;20029;-79
2021/10/10 12:12:36;;;;;;;15.50;12.05;;;;;;;22.47;57.13;102778.31;10393721;28;20041;-79
2021/10/10 12:17:39;;;;;;;15.85;11.35;;;;;;;22.21;59.90;102756.56;10379580;28;20133;-79
2021/10/10 12:22:50;;;;;;;13.15;10.82;;;;;;;22.01;63.76;102760.34;10378268;28;20026;-79
2021/10/10 12:28:01;;;;;;;17.00;12.23;;;;;;;21.87;63.33;102764.31;10377314;28;20556;-80
2021/10/10 12:33:20;;;;;;;16.15;12.82;;;;;;;21.81;64.74;102759.72;10378501;28;20108;-79
2021/10/10 12:38:47;;;;;;;20.67;13.15;;;;;;;21.75;65.49;102752.34;10377192;28;20516;-79
2021/10/10 12:44:14;;;;;;;16.97;14.53;;;;;;;21.74;65.11;102762.53;10375408;28;20069;-80
2021/10/10 12:49:24;;;;;;;15.73;13.35;;;;;;;21.92;61.17;102772.78;10377234;28;20095;-79
2021/10/10 12:54:26;;;;;;;15.48;12.02;;;;;;;22.19;59.13;102634.53;10376582;28;20057;-80
2021/10/10 12:59:26;;;;;;;19.23;13.38;;;;;;;24.00;57.98;102755.75;10393103;28;20064;-80
2021/10/10 13:04:27;;;;;;;15.63;11.82;;;;;;;25.03;57.11;102749.25;10394010;28;20034;-79
2021/10/10 13:09:30;;;;;;;14.23;11.07;;;;;;;25.01;54.94;102673.81;10360596;28;20038;-79
2021/10/10 13:14:31;;;;;;;15.80;10.35;;;;;;;24.21;55.06;102685.03;10378618;28;20033;-79
2021/10/10 13:19:31;;;;;;;12.18;10.38;;;;;;;24.03;56.29;102749.72;10380839;28;20038;-78
2021/10/10 13:24:32;;;;;;;14.70;11.27;;;;;;;23.42;57.67;102738.91;10379806;28;20442;-79
2021/10/10 13:29:32;;;;;;;16.50;12.07;;;;;;;23.23;57.53;102653.53;10377469;28;20042;-79
2021/10/10 13:34:33;;;;;;;12.00;10.68;;;;;;;23.33;56.96;102718.22;10375157;28;20544;-79
2021/10/10 13:39:33;;;;;;;12.93;11.45;;;;;;;23.24;55.72;102669.88;10391034;28;20042;-79
2021/10/10 13:44:34;;;;;;;16.92;11.25;;;;;;;22.98;56.27;102638.88;10375926;28;20045;-79
2021/10/10 13:49:34;;;;;;;12.02;10.25;;;;;;;23.72;56.17;102703.94;10375329;28;20465;-80
2021/10/10 13:54:36;;;;;;;15.23;9.93;;;;;;;23.72;56.32;102706.69;10374996;28;20520;-79
2021/10/10 13:59:38;;;;;;;13.85;10.70;;;;;;;23.70;54.76;102697.78;10376604;28;20489;-80
2021/10/10 14:04:41;;;;;;;15.35;9.32;;;;;;;22.85;55.12;102600.38;10385965;28;20046;-81
2021/10/10 14:09:41;;;;;;;10.25;8.98;;;;;;;22.22;56.14;102576.13;10343439;28;20117;-78
2021/10/10 14:14:42;;;;;;;14.30;10.68;;;;;;;22.38;56.84;102688.63;10334042;28;20125;-79
2021/10/10 14:19:42;;;;;;;11.95;10.75;;;;;;;22.85;56.86;102699.84;10334934;28;20482;-80
2021/10/10 14:24:42;;;;;;;15.82;10.77;;;;;;;22.96;56.98;102673.34;10332711;28;20398;-79
2021/10/10 14:29:43;;;;;;;11.07;10.07;;;;;;;23.63;56.63;102698.72;10333258;28;20042;-79
2021/10/10 14:34:43;;;;;;;9.55;8.35;;;;;;;22.62;56.44;102644.50;10327089;28;20041;-79
2021/10/10 14:39:44;;;;;;;11.90;9.30;;;;;;;22.40;57.58;102702.16;10373231;28;20073;-79
2021/10/10 14:44:55;;;;;;;10.82;8.57;;;;;;;22.05;58.87;102689.84;10374617;28;20038;-80
2021/10/10 14:49:55;;;;;;;11.57;9.70;;;;;;;21.70;60.04;102678.59;10374203;28;20045;-79
2021/10/10 14:54:56;;;;;;;10.82;8.48;;;;;;;21.51;60.58;102666.72;10374124;28;20092;-80
2021/10/10 14:59:56;;;;;;;10.40;8.95;;;;;;;21.48;59.87;102696.66;10389800;28;20046;-79
2021/10/10 15:05:01;;;;;;;11.52;10.32;;;;;;;20.74;60.89;102604.63;10375296;28;20030;-79
2021/10/10 15:10:03;;;;;;;14.02;9.60;;;;;;;20.73;61.14;102625.81;10381777;28;20081;-79
2021/10/10 15:15:04;;;;;;;14.18;10.18;;;;;;;21.08;60.37;102700.53;10381342;28;20080;-80
2021/10/10 15:20:07;;;;;;;13.98;11.30;;;;;;;20.37;63.74;102626.47;10381209;28;20029;-79
2021/10/10 15:25:08;;;;;;;25.55;12.13;;;;;;;20.72;62.30;102704.00;10379983;28;20393;-79
2021/10/10 15:30:09;;;;;;;14.35;10.65;;;;;;;20.65;62.59;102671.00;10381270;28;20030;-79
2021/10/10 15:35:10;;;;;;;16.00;11.60;;;;;;;20.60;62.93;102651.53;10380226;28;20061;-79
2021/10/10 15:40:10;;;;;;;18.15;12.73;;;;;;;20.57;62.93;102678.66;10381034;28;20070;-79
2021/10/10 15:45:11;;;;;;;13.38;11.38;;;;;;;19.96;63.14;102605.75;10380347;28;20046;-79
2021/10/10 15:50:11;;;;;;;16.83;12.40;;;;;;;20.05;62.65;102670.44;10379007;28;20112;-79
2021/10/10 15:55:14;;;;;;;15.00;12.02;;;;;;;19.74;63.19;102672.00;10379641;28;20041;-79
2021/10/10 16:00:14;;;;;;;14.27;12.75;;;;;;;19.40;63.82;102639.28;10378650;28;20045;-79
2021/10/10 16:05:15;;;;;;;14.38;12.48;;;;;;;19.43;64.16;102669.09;10377354;28;20507;-80
2021/10/10 16:10:15;;;;;;;18.60;14.50;;;;;;;19.41;64.57;102657.47;10381615;28;20437;-79
2021/10/10 16:15:16;;;;;;;22.85;14.80;;;;;;;19.11;64.99;102624.97;10379729;28;20096;-79
2021/10/10 16:20:17;;;;;;;19.45;15.30;;;;;;;19.17;65.07;102654.31;10380483;28;20037;-79
2021/10/10 16:25:17;;;;;;;15.32;12.88;;;;;;;18.83;65.54;102622.47;10379964;28;20038;-80
2021/10/10 16:30:17;;;;;;;21.27;15.45;;;;;;;18.78;65.42;102638.69;10379939;28;20029;-79
2021/10/10 16:45:41;;;;;;;24.88;17.35;;;;;;;18.89;67.26;102665.53;10379478;28;20048;-79
2021/10/10 16:50:41;;;;;;;22.23;18.15;;;;;;;18.97;67.02;102669.97;10378885;28;20393;-80
2021/10/10 16:55:42;;;;;;;24.60;17.52;;;;;;;18.92;66.42;102664.25;10378358;28;20050;-80
2021/10/10 17:00:42;;;;;;;24.17;18.58;;;;;;;18.87;66.69;102666.78;10378542;28;20393;-80
2021/10/10 17:05:42;;;;;;;24.55;18.55;;;;;;;18.32;66.99;102587.34;10376135;28;20038;-79
2021/10/10 17:10:43;;;;;;;21.08;16.85;;;;;;;18.43;67.80;102599.56;10376824;28;20081;-79
2021/10/10 17:15:43;;;;;;;21.15;17.45;;;;;;;18.74;67.23;102649.25;10377254;28;20556;-79
2021/10/10 17:20:43;;;;;;;28.55;17.65;;;;;;;18.81;67.68;102646.50;10377917;28;20433;-79
2021/10/10 17:25:44;;;;;;;26.70;20.77;;;;;;;18.69;68.28;102648.16;10376204;28;20029;-79
2021/10/10 17:30:44;;;;;;;25.88;21.10;;;;;;;18.64;68.58;102684.47;10375097;28;20041;-79
2021/10/10 17:35:45;;;;;;;30.00;24.13;;;;;;;18.06;68.98;102634.69;10376289;28;20029;-79
2021/10/10 17:40:45;;;;;;;35.60;26.52;;;;;;;17.78;69.95;102616.47;10375218;28;20112;-79
2021/10/10 17:45:46;;;;;;;44.90;30.35;;;;;;;18.04;70.42;102672.44;10376612;28;20037;-80
2021/10/10 17:50:46;;;;;;;35.72;27.35;;;;;;;17.70;70.12;102618.47;10376453;28;20501;-79
2021/10/10 17:55:51;;;;;;;35.75;26.88;;;;;;;17.73;70.65;102623.56;10376860;28;20088;-79
2021/10/10 18:00:58;;;;;;;36.40;27.65;;;;;;;17.56;70.61;102610.19;10376290;28;20036;-78
2021/10/10 18:16:37;;;;;;;31.77;21.60;;;;;;;17.56;71.27;102667.72;10374682;28;20037;-80
2021/10/10 18:21:39;;;;;;;22.05;16.70;;;;;;;17.62;71.17;102708.03;10390796;28;20042;-79
2021/10/10 18:26:40;;;;;;;20.05;14.93;;;;;;;16.78;70.99;102543.75;10373581;28;20042;-78
2021/10/10 18:31:41;;;;;;;20.45;15.73;;;;;;;17.60;71.08;102679.13;10374364;28;20029;-78
2021/10/10 18:36:42;;;;;;;17.42;15.20;;;;;;;17.62;71.07;102679.78;10373551;28;20037;-79
2021/10/10 18:41:43;;;;;;;18.52;11.95;;;;;;;17.27;70.78;102614.03;10373900;28;20042;-78
2021/10/10 18:46:43;;;;;;;17.00;12.73;;;;;;;17.55;71.17;102665.16;10374156;28;20053;-78
2021/10/10 18:51:44;;;;;;;17.40;11.48;;;;;;;17.49;70.92;102655.03;10372344;28;20108;-78
2021/10/10 18:56:45;;;;;;;10.80;9.80;;;;;;;17.25;70.94;102621.59;10373879;28;20425;-78
2021/10/10 19:01:45;;;;;;;17.33;8.45;;;;;;;17.72;71.28;102693.13;10374829;28;20083;-78
2021/10/10 19:06:46;;;;;;;8.80;5.18;;;;;;;17.57;71.80;102693.22;10389584;28;20096;-78
2021/10/10 19:11:49;;;;;;;4.72;2.80;;;;;;;17.40;72.31;102709.97;10374836;28;20121;-78
2021/10/10 19:16:50;;;;;;;4.97;2.08;;;;;;;17.15;72.25;102675.84;10388619;28;20030;-76
2021/10/10 19:21:50;;;;;;;4.38;1.20;;;;;;;17.25;72.55;102705.63;10373294;28;20042;-76
2021/10/10 19:26:51;;;;;;;8.88;1.80;;;;;;;17.24;72.12;102707.53;10388255;28;20038;-76
2021/10/10 19:31:51;;;;;;;3.70;2.47;;;;;;;17.25;71.90;102711.09;10373519;28;20141;-76
2021/10/10 19:36:52;;;;;;;10.13;3.50;;;;;;;17.36;71.81;102727.00;10371202;28;20084;-76
2021/10/10 19:41:52;;;;;;;2.90;1.85;;;;;;;17.11;72.75;102718.34;10372772;28;20108;-78
2021/10/10 19:46:52;;;;;;;8.10;1.63;;;;;;;17.03;71.92;102716.59;10388620;28;20034;-77
2021/10/10 19:51:53;;;;;;;1.30;1.10;;;;;;;16.98;71.49;102715.50;10375998;28;20053;-78
2021/10/10 19:56:53;;;;;;;2.50;1.65;;;;;;;16.96;71.41;102721.16;10381297;28;20057;-77
2021/10/10 20:01:53;;;;;;;8.15;1.80;;;;;;;16.95;71.21;102723.06;10380189;28;20390;-77
2021/10/10 20:06:54;;;;;;;3.22;1.88;;;;;;;16.63;71.13;102701.66;10379753;28;20030;-77
2021/10/10 20:11:54;;;;;;;4.53;1.98;;;;;;;16.68;71.17;102730.09;10382117;28;20119;-77
2021/10/10 20:16:55;;;;;;;1.33;1.17;;;;;;;16.78;71.88;102740.75;10381952;28;20061;-76
2021/10/10 20:21:55;;;;;;;3.17;1.58;;;;;;;16.90;71.16;102735.63;10398113;28;20525;-77
2021/10/10 20:26:56;;;;;;;6.80;2.40;;;;;;;16.43;71.42;102650.31;10380552;28;20053;-78
2021/10/10 20:31:56;;;;;;;7.57;2.30;;;;;;;16.49;71.30;102676.00;10378649;28;20092;-78
2021/10/10 20:36:56;;;;;;;3.42;1.73;;;;;;;16.70;72.33;102741.69;10378828;28;20034;-78
2021/10/10 20:41:57;;;;;;;7.45;2.10;;;;;;;16.35;72.06;102707.84;10378865;28;20038;-77
2021/10/10 20:46:57;;;;;;;9.70;2.60;;;;;;;16.65;71.08;102746.03;10361532;28;20062;-77
2021/10/10 20:51:58;;;;;;;8.45;2.25;;;;;;;16.52;71.02;102728.44;10394039;28;20398;-78
2021/10/10 20:56:58;;;;;;;7.57;2.25;;;;;;;16.45;70.35;102730.25;10393335;28;20471;-78
2021/10/10 21:01:58;;;;;;;5.57;2.75;;;;;;;16.44;70.73;102769.59;10376568;28;20073;-78
2021/10/10 21:06:59;;;;;;;15.35;2.88;;;;;;;16.33;70.50;102756.38;10375944;28;20374;-78
2021/10/10 21:11:59;;;;;;;5.85;3.00;;;;;;;16.13;70.29;102745.19;10393268;28;20046;-77
2021/10/10 21:17:00;;;;;;;5.63;2.15;;;;;;;15.13;69.42;102597.28;10377863;28;20037;-77
2021/10/10 21:22:00;;;;;;;11.73;2.67;;;;;;;15.83;69.72;102748.97;10377445;28;20073;-77
2021/10/10 21:27:05;;;;;;;15.18;2.53;;;;;;;15.71;69.53;102754.88;10392668;28;20470;-77
2021/10/10 21:32:16;;;;;;;8.65;2.15;;;;;;;15.58;69.85;102744.56;10377289;28;20049;-77
2021/10/10 21:37:17;;;;;;;2.67;1.80;;;;;;;15.47;69.98;102749.63;10376329;28;20573;-78
2021/10/10 21:42:17;;;;;;;5.45;2.45;;;;;;;15.37;69.36;102744.41;10376843;28;20152;-78
2021/10/10 21:47:18;;;;;;;3.67;2.08;;;;;;;15.23;69.83;102750.69;10376515;28;20425;-80
2021/10/10 21:52:19;;;;;;;12.98;3.75;;;;;;;15.17;69.96;102755.00;10377075;28;20077;-80
2021/10/10 21:57:19;;;;;;;8.35;3.03;;;;;;;15.10;70.29;102759.50;10376242;28;20457;-80
2021/10/10 22:02:20;;;;;;;5.40;2.67;;;;;;;15.00;70.30;102759.75;10376993;28;20030;-79
2021/10/10 22:07:22;;;;;;;5.82;3.10;;;;;;;14.87;70.58;102743.13;10375860;28;20108;-80
2021/10/10 22:12:22;;;;;;;6.85;3.30;;;;;;;14.94;69.91;102752.28;10376619;28;20442;-80
2021/10/10 22:17:22;;;;;;;10.15;2.95;;;;;;;14.69;70.34;102709.84;10374636;28;20121;-80
2021/10/10 22:22:23;;;;;;;14.15;3.50;;;;;;;14.93;70.42;102757.91;10376349;28;20421;-78
2021/10/10 22:27:29;;;;;;;8.98;3.80;;;;;;;14.98;71.19;102748.16;10375775;28;20474;-78
2021/10/10 22:32:30;;;;;;;8.20;3.08;;;;;;;15.18;70.91;102728.56;10375163;28;20034;-77
2021/10/10 22:37:30;;;;;;;8.55;2.65;;;;;;;14.98;71.28;102673.66;10374274;28;20347;-78
2021/10/10 22:42:31;;;;;;;8.57;3.15;;;;;;;15.44;70.83;102737.19;10373299;28;20132;-77
2021/10/10 22:47:31;;;;;;;6.88;2.13;;;;;;;15.33;70.79;102738.47;10372788;28;20482;-77
2021/10/10 22:52:32;;;;;;;5.57;2.55;;;;;;;15.34;70.63;102750.25;10373016;28;20080;-78
2021/10/10 22:57:32;;;;;;;7.65;2.65;;;;;;;15.23;70.24;102751.53;10389547;28;20037;-77
2021/10/10 23:02:33;;;;;;;4.05;2.08;;;;;;;15.24;70.21;102750.50;10375293;28;20117;-78
2021/10/10 23:07:33;;;;;;;4.78;3.08;;;;;;;15.29;70.63;102752.69;10372521;28;20052;-77
2021/10/10 23:12:33;;;;;;;4.35;2.67;;;;;;;14.75;70.38;102651.84;10373413;28;20046;-78
2021/10/10 23:17:34;;;;;;;2.15;2.03;;;;;;;15.12;70.05;102727.41;10372072;28;20026;-78